• location
  • image
mod_vvisit_countermod_vvisit_countermod_vvisit_countermod_vvisit_countermod_vvisit_countermod_vvisit_counter
mod_vvisit_counterToday246
mod_vvisit_counterYesterday1552
mod_vvisit_counterThis week246
mod_vvisit_counterLast week7658
mod_vvisit_counterThis month23698
mod_vvisit_counterLast month21779
mod_vvisit_counterAll days565554

We have: 4 guests, 3 bots online
Your IP: 54.144.194.161
 , 
Today: Feb 27, 2017
Airport

AP V2 EN

 

 

You can watch a film about services of Siauliai International Airport

Today

Monday, 27 February 2017

Weather Forecast

Siauliai °C
   

Aviation Weather Forecast

[source: ADDS]
METAR
EYSA 270620Z 22002KT 0900 1000S R32R/1700D FG OVC002 02/02 Q1006 R32R/29//95 R32L/29//95 AMB NOSIG =
TAF
TAF EYSA 270500Z 2706/2715 27010KT 3000 BR OVC004 TEMPO 2706/2709 0500 DZ FG VV002 =
SR / SS: 05:20 / 16:00 UTC (EYSA 2017-02-27)

Search

Who's Online

We have 7 guests online

tic logo en